Main page
METAR-TAF:

METAR-TAF

Airports :

Bangui M'Poko International Airport

Bangui, Central African Republic

latitude: 04-24N, longitude: 018-31E, elevation: 365 m

Current weather observation

The report was made 2 hours and 26 minutes ago, at 03:00 UTC
Calm wind
Temperature 23°C
Humidity 94%
Pressure 1009 hPa

METAR: FEFF 250300Z AUTO 00000KT 23/22 Q1009

Time: 06:26 (05:26 UTC)

Forecast

The report was made 6 hours and 26 minutes ago, at 23:00 UTC
Forecast valid from 25 at 02 UTC to 26 at 06 UTC
Wind 3 kt from variable directions
Visibility: 8000 m
Broken clouds at a height of 800 ft
Becoming
from 25 at 03 UTC to 25 at 05 UTC
Visibility: 4000 m
Broken clouds at a height of 400 ft
mist
From 25 at 0900 UTC
Wind 6 kt from the Southwest
Visibility 10 km or more
Broken clouds at a height of 1300 ft

TAF: FEFF 242300Z 2502/2606 VRB03KT 8000 BKN008 BECMG 2503/2505 4000 BR BKN004 FM250900 22006KT 9999 NSW BKN013

Weather observations and forecasts of more than 4000 airports (METAR and TAF reports).

The available stations are represented by yellow and red dots on the map.

Hover mouse over dot to see the name of the station.

Then click to see weather observations and forecasts.

To change the map : click on the green buttons with a black cross to zoom in, on the green button with a dash to zoom out, or on the green arrows for adjacent maps.


METAR-TAF: